createdAt,value
2018-11-29T00:00:45.025Z,75.97
2018-11-29T00:02:57.269Z,75.51
2018-11-29T00:05:09.486Z,76.78
2018-11-29T00:07:21.701Z,76.43
2018-11-29T00:09:37.849Z,76.36
2018-11-29T00:11:50.012Z,76.43
2018-11-29T00:14:02.377Z,75.70
2018-11-29T00:16:14.603Z,76.44
2018-11-29T00:18:26.798Z,76.22
2018-11-29T00:20:38.962Z,76.02
2018-11-29T00:22:51.311Z,76.71
2018-11-29T00:25:03.899Z,75.72
2018-11-29T00:27:16.156Z,75.83
2018-11-29T00:29:28.364Z,76.96
2018-11-29T00:31:40.551Z,75.95
2018-11-29T00:33:52.710Z,76.43
2018-11-29T00:36:04.996Z,77.05
2018-11-29T00:38:17.159Z,76.69
2018-11-29T00:40:29.359Z,76.91
2018-11-29T00:42:41.561Z,76.78
2018-11-29T00:44:53.752Z,76.70
2018-11-29T00:47:05.958Z,76.55
2018-11-29T00:49:18.147Z,76.52
2018-11-29T00:51:30.396Z,77.08
2018-11-29T00:53:42.565Z,77.30
2018-11-29T00:55:54.759Z,77.26
2018-11-29T00:58:06.932Z,76.17
2018-11-29T01:00:21.030Z,76.67
2018-11-29T01:02:33.218Z,76.51
2018-11-29T01:04:45.401Z,76.54
2018-11-29T01:06:57.600Z,76.51
2018-11-29T01:09:09.844Z,76.23
2018-11-29T01:11:22.109Z,76.67
2018-11-29T01:13:34.320Z,77.07
2018-11-29T01:15:46.517Z,76.23
2018-11-29T01:17:58.714Z,77.01
2018-11-29T01:20:12.962Z,77.14
2018-11-29T01:22:25.185Z,77.19
2018-11-29T01:24:37.398Z,76.98
2018-11-29T01:26:49.594Z,77.33
2018-11-29T01:29:01.849Z,77.46
2018-11-29T01:31:14.039Z,77.23
2018-11-29T01:33:26.213Z,76.71
2018-11-29T01:35:38.396Z,76.88
2018-11-29T01:37:50.626Z,76.08
2018-11-29T01:40:02.898Z,76.08
2018-11-29T01:42:15.077Z,76.10
2018-11-29T01:44:27.274Z,76.14
2018-11-29T01:46:39.479Z,75.50
2018-11-29T01:48:51.693Z,75.51
2018-11-29T01:51:04.116Z,75.59
2018-11-29T01:53:16.312Z,75.92
2018-11-29T01:55:28.506Z,75.22
2018-11-29T01:57:40.763Z,75.56
2018-11-29T01:59:52.995Z,75.36
2018-11-29T02:02:05.481Z,76.14
2018-11-29T02:04:17.721Z,75.94
2018-11-29T02:06:29.930Z,76.23
2018-11-29T02:08:42.122Z,76.95
2018-11-29T02:10:54.421Z,76.10
2018-11-29T02:13:06.738Z,76.66
2018-11-29T02:15:18.929Z,76.57
2018-11-29T02:17:31.152Z,76.39
2018-11-29T02:19:43.308Z,77.12
2018-11-29T02:21:55.509Z,76.33
2018-11-29T02:24:07.674Z,76.19
2018-11-29T02:26:19.932Z,76.06
2018-11-29T02:28:32.196Z,75.83
2018-11-29T02:30:44.364Z,75.94
2018-11-29T02:32:56.540Z,75.60
2018-11-29T02:35:08.729Z,76.23
2018-11-29T02:37:20.890Z,76.48
2018-11-29T02:39:33.193Z,76.17
2018-11-29T02:41:45.387Z,75.96
2018-11-29T02:43:57.562Z,75.78
2018-11-29T02:46:09.761Z,76.42
2018-11-29T02:48:21.923Z,75.68
2018-11-29T02:50:34.097Z,76.58
2018-11-29T02:52:46.279Z,76.53
2018-11-29T02:54:58.444Z,76.13
2018-11-29T02:57:10.630Z,76.17
2018-11-29T02:59:22.780Z,76.34
2018-11-29T03:01:35.008Z,76.52
2018-11-29T03:03:47.208Z,76.62
2018-11-29T03:05:59.441Z,76.83
2018-11-29T03:08:11.618Z,76.56
2018-11-29T03:10:25.546Z,76.67
2018-11-29T03:12:37.772Z,76.28
2018-11-29T03:14:49.965Z,76.04
2018-11-29T03:17:02.194Z,76.65
2018-11-29T03:19:14.362Z,77.75
2018-11-29T03:21:26.532Z,76.71
2018-11-29T03:23:38.701Z,76.72
2018-11-29T03:25:50.900Z,77.31
2018-11-29T03:28:03.115Z,77.33
2018-11-29T03:30:16.444Z,77.05
2018-11-29T03:32:28.627Z,76.74
2018-11-29T03:34:40.796Z,77.48
2018-11-29T03:36:52.995Z,77.14
2018-11-29T03:39:06.561Z,76.37
2018-11-29T03:41:18.736Z,77.36
2018-11-29T03:43:30.936Z,77.68
2018-11-29T03:45:43.220Z,77.80
2018-11-29T03:47:55.453Z,77.73
2018-11-29T03:50:10.229Z,77.53
2018-11-29T03:52:22.437Z,76.90
2018-11-29T03:54:34.633Z,76.72
2018-11-29T03:56:46.789Z,77.27
2018-11-29T03:58:58.937Z,76.89
2018-11-29T04:01:11.106Z,76.91
2018-11-29T04:03:23.307Z,76.87
2018-11-29T04:05:35.495Z,76.14
2018-11-29T04:07:47.684Z,76.34
2018-11-29T04:09:59.876Z,76.23
2018-11-29T04:12:12.040Z,76.32
2018-11-29T04:14:24.253Z,75.98
2018-11-29T04:16:36.438Z,75.72
2018-11-29T04:18:49.146Z,76.25
2018-11-29T04:21:00.821Z,76.61
2018-11-29T04:23:12.994Z,76.85
2018-11-29T04:25:25.193Z,76.99
2018-11-29T04:27:37.378Z,76.24
2018-11-29T04:29:49.540Z,77.15
2018-11-29T04:32:01.733Z,77.07
2018-11-29T04:34:13.933Z,75.96
2018-11-29T04:36:26.149Z,75.82
2018-11-29T04:38:38.601Z,76.22
2018-11-29T04:40:50.845Z,75.99
2018-11-29T04:43:03.041Z,76.90
2018-11-29T04:45:16.279Z,76.81
2018-11-29T04:47:28.465Z,76.61
2018-11-29T04:49:40.643Z,76.17
2018-11-29T04:51:52.842Z,75.87
2018-11-29T04:54:05.936Z,76.73
2018-11-29T04:56:18.088Z,76.33
2018-11-29T04:58:30.297Z,76.50
2018-11-29T05:00:42.516Z,75.94
2018-11-29T05:02:54.726Z,76.45
2018-11-29T05:05:07.582Z,76.31
2018-11-29T05:07:19.763Z,76.31
2018-11-29T05:09:31.988Z,76.44
2018-11-29T05:11:44.162Z,76.23
2018-11-29T05:13:56.356Z,76.57
2018-11-29T05:16:08.591Z,76.11
2018-11-29T05:18:20.777Z,76.49
2018-11-29T05:20:32.946Z,75.76
2018-11-29T05:22:45.150Z,76.44
2018-11-29T05:24:57.390Z,76.27
2018-11-29T05:27:09.671Z,76.73
2018-11-29T05:29:21.863Z,75.84
2018-11-29T05:31:34.062Z,76.38
2018-11-29T05:33:46.265Z,76.42
2018-11-29T05:35:58.488Z,76.04
2018-11-29T05:38:10.633Z,76.41
2018-11-29T05:40:22.828Z,77.31
2018-11-29T05:42:35.019Z,76.42
2018-11-29T05:44:47.256Z,75.92
2018-11-29T05:46:59.472Z,76.43
2018-11-29T05:49:11.645Z,76.34
2018-11-29T05:51:23.892Z,76.46
2018-11-29T05:53:36.129Z,75.82
2018-11-29T05:55:48.356Z,75.73
2018-11-29T05:58:00.560Z,76.27
2018-11-29T06:00:13.664Z,76.93
2018-11-29T06:02:25.835Z,77.39
2018-11-29T06:04:38.033Z,77.09
2018-11-29T06:06:50.220Z,77.34
2018-11-29T06:09:02.625Z,77.56
2018-11-29T06:11:14.836Z,78.78
2018-11-29T06:13:27.065Z,78.91
2018-11-29T06:15:39.244Z,78.28
2018-11-29T06:17:51.433Z,79.22
2018-11-29T06:20:03.985Z,78.79
2018-11-29T06:22:16.171Z,78.41
2018-11-29T06:24:28.331Z,78.31
2018-11-29T06:26:40.493Z,79.45
2018-11-29T06:28:52.769Z,78.51
2018-11-29T06:31:05.380Z,78.18
2018-11-29T06:33:17.560Z,78.43
2018-11-29T06:35:29.729Z,78.47
2018-11-29T06:37:41.933Z,79.04
2018-11-29T06:39:54.147Z,78.82
2018-11-29T06:42:10.223Z,78.77
2018-11-29T06:44:22.510Z,78.55
2018-11-29T06:46:34.760Z,79.27
2018-11-29T06:48:46.920Z,78.50
2018-11-29T06:51:00.478Z,78.57
2018-11-29T06:53:18.512Z,77.63
2018-11-29T06:55:30.739Z,77.53
2018-11-29T06:57:42.966Z,77.15
2018-11-29T06:59:55.126Z,77.20
2018-11-29T07:02:07.430Z,77.66
2018-11-29T07:04:19.729Z,76.87
2018-11-29T07:06:31.962Z,77.30
2018-11-29T07:08:44.174Z,77.90
2018-11-29T07:10:56.353Z,79.42
2018-11-29T07:13:08.533Z,78.80
2018-11-29T07:15:20.804Z,78.96
2018-11-29T07:17:33.005Z,79.71
2018-11-29T07:19:45.208Z,79.02
2018-11-29T07:21:57.422Z,78.10
2018-11-29T07:24:09.689Z,77.13
2018-11-29T07:26:21.857Z,77.08
2018-11-29T07:28:34.116Z,76.28
2018-11-29T07:30:46.312Z,76.19
2018-11-29T07:32:58.532Z,75.14
2018-11-29T07:35:11.869Z,74.98
2018-11-29T07:37:24.084Z,74.64
2018-11-29T07:39:36.309Z,74.88
2018-11-29T07:41:48.644Z,74.66
2018-11-29T07:44:00.824Z,74.54
2018-11-29T07:46:13.021Z,74.48
2018-11-29T07:48:25.180Z,75.33
2018-11-29T07:50:37.367Z,74.37
2018-11-29T07:52:49.593Z,73.62
2018-11-29T07:55:01.765Z,73.12
2018-11-29T07:57:13.969Z,72.80
2018-11-29T07:59:26.136Z,72.53
2018-11-29T08:01:38.329Z,72.10
2018-11-29T08:03:50.615Z,72.39
2018-11-29T08:06:02.798Z,72.08
2018-11-29T08:08:14.981Z,72.04
2018-11-29T08:10:27.137Z,70.66
2018-11-29T08:12:39.384Z,69.28
2018-11-29T08:14:51.610Z,68.40
2018-11-29T08:17:03.817Z,67.79
2018-11-29T08:19:16.011Z,66.34
2018-11-29T08:21:28.225Z,65.87
2018-11-29T08:23:40.461Z,65.38
2018-11-29T08:25:52.657Z,65.95
2018-11-29T08:28:04.854Z,64.95
2018-11-29T08:30:17.048Z,66.15
2018-11-29T08:32:29.282Z,64.39
2018-11-29T08:34:41.432Z,64.22
2018-11-29T08:36:53.648Z,64.18
2018-11-29T08:39:08.374Z,64.47
2018-11-29T08:41:20.537Z,63.50
2018-11-29T08:43:32.776Z,64.45
2018-11-29T08:45:44.945Z,63.99
2018-11-29T08:47:57.135Z,63.83
2018-11-29T08:50:12.285Z,63.18
2018-11-29T08:52:24.545Z,62.10
2018-11-29T08:54:36.735Z,62.16
2018-11-29T08:56:48.897Z,61.58
2018-11-29T08:59:01.063Z,62.34
2018-11-29T09:01:13.225Z,61.06
2018-11-29T09:03:25.410Z,61.32
2018-11-29T09:05:37.609Z,62.06
2018-11-29T09:07:49.838Z,61.31
2018-11-29T09:10:02.044Z,60.41
2018-11-29T09:12:14.231Z,61.29
2018-11-29T09:14:26.406Z,61.86
2018-11-29T09:16:38.625Z,61.59
2018-11-29T09:18:50.808Z,60.27
2018-11-29T09:21:03.041Z,59.89
2018-11-29T09:23:15.204Z,59.60
2018-11-29T09:25:27.453Z,59.49
2018-11-29T09:27:39.638Z,60.25
2018-11-29T09:29:51.821Z,59.38
2018-11-29T09:32:05.697Z,59.65
2018-11-29T09:34:17.808Z,58.66
2018-11-29T09:36:30.021Z,58.76
2018-11-29T09:38:42.190Z,58.04
2018-11-29T09:40:54.423Z,57.64
2018-11-29T09:43:06.597Z,56.52
2018-11-29T09:45:19.773Z,56.91
2018-11-29T09:47:31.965Z,57.37
2018-11-29T09:49:44.153Z,56.24
2018-11-29T09:51:56.362Z,55.59
2018-11-29T09:54:08.635Z,54.06
2018-11-29T09:56:20.809Z,54.57
2018-11-29T09:58:33.032Z,53.14
2018-11-29T10:00:45.229Z,54.22
2018-11-29T10:03:06.901Z,52.68
2018-11-29T10:05:19.087Z,53.68
2018-11-29T10:07:31.291Z,52.58
2018-11-29T10:09:43.526Z,52.71
2018-11-29T10:11:55.760Z,52.75
2018-11-29T10:14:07.967Z,53.01
2018-11-29T10:16:20.137Z,51.25
2018-11-29T10:18:32.347Z,50.83
2018-11-29T10:20:44.573Z,51.96
2018-11-29T10:22:56.749Z,51.30
2018-11-29T10:25:10.337Z,51.24
2018-11-29T10:27:22.548Z,51.21
2018-11-29T10:29:34.758Z,50.50
2018-11-29T10:31:46.904Z,51.72
2018-11-29T10:33:59.111Z,51.52
2018-11-29T10:36:11.280Z,52.32
2018-11-29T10:38:23.494Z,52.00
2018-11-29T10:40:35.682Z,52.96
2018-11-29T10:42:47.873Z,52.21
2018-11-29T10:45:00.066Z,52.50
2018-11-29T10:47:12.278Z,53.32
2018-11-29T10:49:24.453Z,53.24
2018-11-29T10:51:36.632Z,52.83
2018-11-29T10:53:48.880Z,54.63
2018-11-29T10:56:01.248Z,53.74
2018-11-29T10:58:13.474Z,53.28
2018-11-29T11:00:31.390Z,53.71
2018-11-29T11:02:49.172Z,53.50
2018-11-29T11:05:01.352Z,53.76
2018-11-29T11:07:13.577Z,53.37
2018-11-29T11:09:25.742Z,53.26
2018-11-29T11:11:37.920Z,53.96
2018-11-29T11:13:50.162Z,53.33
2018-11-29T11:16:02.365Z,53.40
2018-11-29T11:18:15.397Z,53.82
2018-11-29T11:20:27.578Z,54.15
2018-11-29T11:22:39.819Z,54.11
2018-11-29T11:24:52.021Z,54.04
2018-11-29T11:27:04.248Z,52.98
2018-11-29T11:29:16.397Z,52.92
2018-11-29T11:31:31.179Z,53.84
2018-11-29T11:33:40.833Z,54.03
2018-11-29T11:35:52.997Z,54.10
2018-11-29T11:38:05.315Z,53.61
2018-11-29T11:40:17.570Z,53.87
2018-11-29T11:42:29.744Z,53.92
2018-11-29T11:44:41.932Z,53.60
2018-11-29T11:46:54.136Z,53.54
2018-11-29T11:49:06.303Z,52.18
2018-11-29T11:51:18.483Z,51.83
2018-11-29T11:53:30.663Z,52.04
2018-11-29T11:55:42.862Z,52.17
2018-11-29T11:57:55.037Z,52.96
2018-11-29T12:00:12.321Z,52.33
2018-11-29T12:02:27.309Z,51.77
2018-11-29T12:04:36.738Z,52.50
2018-11-29T12:06:48.915Z,51.42
2018-11-29T12:09:01.117Z,52.28
2018-11-29T12:11:13.384Z,51.77
2018-11-29T12:13:25.903Z,52.63
2018-11-29T12:15:38.172Z,51.59
2018-11-29T12:17:50.361Z,52.56
2018-11-29T12:20:02.604Z,51.68
2018-11-29T12:22:14.795Z,52.01
2018-11-29T12:24:27.044Z,52.52
2018-11-29T12:26:39.259Z,51.98
2018-11-29T12:28:51.433Z,51.35
2018-11-29T12:31:03.628Z,51.22
2018-11-29T12:33:16.785Z,51.63
2018-11-29T12:35:29.005Z,50.18
2018-11-29T12:37:41.176Z,51.21
2018-11-29T12:39:53.342Z,50.53
2018-11-29T12:42:05.554Z,51.13
2018-11-29T12:44:17.768Z,51.53
2018-11-29T12:46:29.980Z,51.07
2018-11-29T12:48:42.157Z,51.53
2018-11-29T12:50:54.392Z,51.21
2018-11-29T12:53:07.129Z,50.84
2018-11-29T12:55:20.434Z,51.49
2018-11-29T12:57:32.644Z,50.83
2018-11-29T12:59:44.837Z,50.63
2018-11-29T13:01:57.048Z,50.90
2018-11-29T13:04:09.248Z,50.85
2018-11-29T13:06:21.489Z,51.88
2018-11-29T13:08:33.708Z,51.36
2018-11-29T13:10:45.883Z,51.76
2018-11-29T13:12:58.102Z,51.41
2018-11-29T13:15:11.854Z,61.01
2018-11-29T13:17:24.005Z,54.37
2018-11-29T13:19:37.085Z,50.29
2018-11-29T13:21:49.321Z,49.57
2018-11-29T13:24:01.588Z,49.74
2018-11-29T13:26:13.786Z,48.82
2018-11-29T13:28:26.037Z,48.72
2018-11-29T13:30:38.242Z,49.03
2018-11-29T13:32:52.784Z,49.43
2018-11-29T13:35:12.136Z,49.40
2018-11-29T13:37:25.305Z,48.96
2018-11-29T13:39:37.463Z,48.79
2018-11-29T13:41:49.658Z,48.88
2018-11-29T13:44:01.854Z,49.36
2018-11-29T13:46:14.088Z,48.94
2018-11-29T13:48:26.297Z,48.73
2018-11-29T13:50:39.364Z,48.39
2018-11-29T13:52:51.472Z,47.96
2018-11-29T13:55:04.489Z,48.88
2018-11-29T13:57:16.678Z,49.08
2018-11-29T13:59:28.880Z,48.45
2018-11-29T14:01:41.057Z,48.41
2018-11-29T14:03:53.217Z,48.37
2018-11-29T14:06:05.924Z,48.54
2018-11-29T14:08:18.105Z,49.51
2018-11-29T14:10:30.381Z,48.74
2018-11-29T14:12:43.152Z,48.96
2018-11-29T14:14:55.408Z,48.73
2018-11-29T14:17:07.584Z,48.79
2018-11-29T14:19:20.092Z,49.35
2018-11-29T14:21:32.285Z,48.94
2018-11-29T14:23:44.492Z,49.89
2018-11-29T14:25:56.694Z,49.19
2018-11-29T14:28:09.313Z,50.14
2018-11-29T14:30:24.655Z,49.54
2018-11-29T14:32:36.851Z,50.49
2018-11-29T14:34:51.698Z,50.67
2018-11-29T14:37:01.210Z,51.17
2018-11-29T14:39:13.401Z,51.14
2018-11-29T14:41:25.664Z,51.02
2018-11-29T14:43:37.920Z,51.40
2018-11-29T14:45:50.129Z,52.01
2018-11-29T14:48:02.318Z,51.42
2018-11-29T14:50:16.381Z,52.00
2018-11-29T14:52:28.578Z,51.40
2018-11-29T14:54:40.824Z,52.33
2018-11-29T14:56:53.068Z,52.43
2018-11-29T14:59:05.374Z,52.57
2018-11-29T15:01:20.243Z,52.98
2018-11-29T15:03:32.459Z,52.27
2018-11-29T15:05:45.181Z,52.31
2018-11-29T15:07:57.459Z,52.62
2018-11-29T15:10:09.881Z,52.08
2018-11-29T15:12:22.104Z,52.46
2018-11-29T15:14:34.270Z,53.64
2018-11-29T15:16:46.496Z,52.82
2018-11-29T15:18:58.726Z,52.94
2018-11-29T15:21:10.963Z,52.67
2018-11-29T15:23:23.198Z,52.71
2018-11-29T15:25:35.404Z,52.31
2018-11-29T15:27:47.656Z,53.07
2018-11-29T15:29:59.840Z,52.17
2018-11-29T15:32:12.041Z,53.38
2018-11-29T15:34:24.277Z,53.09
2018-11-29T15:36:36.521Z,54.13
2018-11-29T15:38:48.718Z,52.89
2018-11-29T15:41:00.915Z,53.26
2018-11-29T15:43:13.134Z,52.91
2018-11-29T15:45:26.131Z,52.41
2018-11-29T15:47:38.353Z,53.62
2018-11-29T15:49:50.588Z,53.61
2018-11-29T15:52:02.909Z,52.86
2018-11-29T15:54:15.145Z,53.83
2018-11-29T15:56:27.408Z,54.17
2018-11-29T15:58:39.705Z,54.02
2018-11-29T16:00:51.901Z,53.36
2018-11-29T16:03:06.501Z,53.38
2018-11-29T16:05:18.769Z,53.96
2018-11-29T16:07:30.944Z,54.37
2018-11-29T16:09:43.132Z,53.86
2018-11-29T16:11:56.969Z,53.70
2018-11-29T16:14:09.178Z,53.77
2018-11-29T16:16:21.393Z,52.96
2018-11-29T16:18:33.600Z,53.91
2018-11-29T16:20:45.902Z,53.68
2018-11-29T16:22:58.204Z,53.33
2018-11-29T16:25:10.945Z,53.02
2018-11-29T16:27:23.195Z,54.01
2018-11-29T16:29:35.504Z,54.33
2018-11-29T16:31:47.757Z,53.77
2018-11-29T16:34:00.026Z,54.39
2018-11-29T16:36:12.270Z,53.82
2018-11-29T16:38:24.520Z,54.71
2018-11-29T16:40:36.764Z,54.39
2018-11-29T16:42:49.026Z,55.41
2018-11-29T16:45:01.334Z,54.91
2018-11-29T16:47:13.605Z,55.86
2018-11-29T16:49:25.885Z,55.17
2018-11-29T16:51:38.094Z,54.94
2018-11-29T16:53:50.286Z,55.34
2018-11-29T16:56:02.546Z,55.52
2018-11-29T16:58:16.863Z,55.79
2018-11-29T17:00:29.148Z,55.50
2018-11-29T17:02:41.457Z,56.54
2018-11-29T17:04:53.716Z,56.83
2018-11-29T17:07:06.261Z,57.50
2018-11-29T17:09:18.502Z,58.04
2018-11-29T17:11:30.720Z,57.54
2018-11-29T17:13:42.945Z,57.45
2018-11-29T17:15:55.170Z,58.08
2018-11-29T17:18:07.396Z,58.45
2018-11-29T17:20:20.052Z,59.40
2018-11-29T17:22:32.279Z,59.48
2018-11-29T17:24:44.445Z,59.44
2018-11-29T17:26:56.621Z,59.58
2018-11-29T17:29:08.834Z,59.65
2018-11-29T17:31:21.044Z,60.37
2018-11-29T17:33:33.253Z,61.23
2018-11-29T17:35:45.480Z,60.81
2018-11-29T17:37:58.714Z,61.01
2018-11-29T17:40:15.114Z,63.09
2018-11-29T17:42:27.304Z,60.98
2018-11-29T17:44:39.529Z,61.50
2018-11-29T17:46:51.851Z,61.71
2018-11-29T17:49:04.332Z,61.24
2018-11-29T17:51:16.609Z,62.23
2018-11-29T17:53:28.856Z,62.36
2018-11-29T17:55:41.209Z,62.35
2018-11-29T17:57:53.414Z,61.54
2018-11-29T18:00:10.905Z,62.05
2018-11-29T18:02:23.134Z,62.39
2018-11-29T18:04:35.378Z,62.44
2018-11-29T18:06:47.694Z,63.02
2018-11-29T18:08:59.963Z,62.87
2018-11-29T18:11:12.220Z,62.92
2018-11-29T18:13:26.631Z,63.62
2018-11-29T18:15:38.842Z,63.70
2018-11-29T18:17:51.117Z,64.49
2018-11-29T18:20:04.326Z,64.54
2018-11-29T18:22:16.540Z,64.03
2018-11-29T18:24:28.769Z,64.49
2018-11-29T18:26:41.046Z,65.18
2018-11-29T18:28:53.310Z,64.83
2018-11-29T18:31:05.578Z,64.98
2018-11-29T18:33:17.837Z,65.33
2018-11-29T18:35:30.098Z,64.93
2018-11-29T18:37:42.587Z,65.29
2018-11-29T18:39:54.761Z,65.69
2018-11-29T18:42:07.031Z,65.75
2018-11-29T18:44:19.224Z,66.24
2018-11-29T18:46:31.437Z,65.69
2018-11-29T18:48:43.767Z,65.77
2018-11-29T18:50:55.980Z,67.25
2018-11-29T18:53:08.287Z,65.95
2018-11-29T18:55:21.796Z,66.12
2018-11-29T18:57:34.024Z,66.85
2018-11-29T18:59:46.336Z,66.80
2018-11-29T19:01:58.615Z,66.47
2018-11-29T19:04:10.817Z,66.19
2018-11-29T19:06:23.018Z,67.07
2018-11-29T19:08:35.261Z,66.15
2018-11-29T19:10:47.549Z,67.22
2018-11-29T19:13:03.291Z,67.18
2018-11-29T19:15:15.545Z,66.91
2018-11-29T19:17:27.802Z,66.88
2018-11-29T19:19:40.068Z,67.64
2018-11-29T19:21:52.265Z,66.91
2018-11-29T19:24:05.137Z,67.47
2018-11-29T19:26:17.421Z,67.30
2018-11-29T19:28:29.602Z,67.57
2018-11-29T19:30:41.913Z,67.50
2018-11-29T19:32:57.636Z,68.49
2018-11-29T19:35:10.638Z,68.45
2018-11-29T19:37:22.912Z,68.86
2018-11-29T19:39:35.258Z,69.07
2018-11-29T19:41:47.509Z,69.59
2018-11-29T19:43:59.837Z,69.41
2018-11-29T19:46:12.083Z,68.54
2018-11-29T19:48:24.323Z,69.77
2018-11-29T19:50:36.593Z,69.59
2018-11-29T19:52:50.397Z,69.63
2018-11-29T19:55:02.612Z,69.30
2018-11-29T19:57:14.979Z,69.51
2018-11-29T19:59:27.228Z,70.26
2018-11-29T20:01:39.535Z,70.15
2018-11-29T20:03:51.896Z,70.65
2018-11-29T20:06:04.639Z,70.35
2018-11-29T20:08:16.883Z,70.58
2018-11-29T20:10:29.116Z,69.76
2018-11-29T20:12:41.374Z,69.78
2018-11-29T20:14:53.652Z,70.00
2018-11-29T20:17:05.925Z,70.41
2018-11-29T20:19:18.208Z,70.20
2018-11-29T20:21:30.509Z,70.99
2018-11-29T20:23:42.734Z,70.87
2018-11-29T20:25:55.017Z,70.92
2018-11-29T20:28:07.373Z,70.25
2018-11-29T20:30:20.606Z,69.84
2018-11-29T20:32:32.890Z,70.06
2018-11-29T20:34:45.179Z,70.76
2018-11-29T20:36:57.378Z,70.88
2018-11-29T20:39:09.959Z,70.65
2018-11-29T20:41:22.170Z,70.81
2018-11-29T20:43:34.501Z,71.65
2018-11-29T20:45:49.290Z,71.51
2018-11-29T20:48:04.643Z,70.94
2018-11-29T20:50:18.507Z,71.52
2018-11-29T20:52:30.788Z,70.88
2018-11-29T20:54:43.025Z,70.84
2018-11-29T20:56:55.318Z,71.07
2018-11-29T20:59:07.592Z,71.30
2018-11-29T21:01:19.829Z,71.31
2018-11-29T21:03:32.873Z,71.67
2018-11-29T21:05:44.389Z,72.10
2018-11-29T21:07:58.170Z,71.16
2018-11-29T21:10:13.207Z,71.35
2018-11-29T21:12:25.418Z,71.31
2018-11-29T21:14:37.667Z,71.24
2018-11-29T21:16:49.913Z,71.90
2018-11-29T21:19:02.180Z,71.22
2018-11-29T21:21:14.451Z,71.79
2018-11-29T21:23:26.690Z,71.27
2018-11-29T21:25:38.913Z,71.93
2018-11-29T21:27:51.137Z,71.63
2018-11-29T21:30:05.003Z,72.12
2018-11-29T21:32:17.212Z,72.12
2018-11-29T21:34:29.413Z,71.61
2018-11-29T21:36:41.754Z,72.46
2018-11-29T21:38:53.966Z,72.79
2018-11-29T21:41:06.244Z,72.15
2018-11-29T21:43:18.467Z,72.35
2018-11-29T21:45:30.704Z,72.35
2018-11-29T21:47:42.933Z,72.27
2018-11-29T21:49:55.135Z,72.47
2018-11-29T21:52:07.364Z,72.50
2018-11-29T21:54:19.592Z,72.83
2018-11-29T21:56:31.836Z,73.66
2018-11-29T21:58:44.044Z,73.37
2018-11-29T22:00:56.461Z,73.63
2018-11-29T22:03:08.680Z,73.37
2018-11-29T22:05:20.962Z,73.22
2018-11-29T22:07:33.189Z,73.88
2018-11-29T22:09:45.393Z,73.77
2018-11-29T22:11:57.656Z,74.00
2018-11-29T22:14:09.822Z,73.62
2018-11-29T22:16:22.149Z,73.30
2018-11-29T22:18:34.404Z,73.97
2018-11-29T22:20:47.712Z,73.91
2018-11-29T22:22:59.936Z,74.01
2018-11-29T22:25:12.224Z,73.29
2018-11-29T22:27:24.499Z,74.27
2018-11-29T22:29:36.729Z,74.66
2018-11-29T22:31:48.985Z,74.77
2018-11-29T22:34:01.175Z,74.60
2018-11-29T22:36:14.260Z,74.35
2018-11-29T22:38:25.596Z,75.11
2018-11-29T22:40:37.816Z,74.30
2018-11-29T22:42:50.104Z,74.56
2018-11-29T22:45:02.344Z,75.80
2018-11-29T22:47:14.553Z,74.88
2018-11-29T22:49:26.773Z,75.42
2018-11-29T22:51:39.013Z,76.26
2018-11-29T22:53:51.217Z,76.26
2018-11-29T22:56:03.494Z,75.68
2018-11-29T22:58:15.688Z,75.47
2018-11-29T23:00:33.687Z,76.01
2018-11-29T23:02:46.786Z,75.55
2018-11-29T23:04:59.182Z,74.76
2018-11-29T23:07:11.297Z,75.65
2018-11-29T23:09:23.528Z,75.21
2018-11-29T23:11:35.972Z,75.11
2018-11-29T23:13:49.905Z,74.89
2018-11-29T23:16:02.189Z,75.04
2018-11-29T23:18:14.382Z,74.14
2018-11-29T23:20:26.705Z,74.18
2018-11-29T23:22:39.494Z,74.28
2018-11-29T23:24:51.706Z,73.46
2018-11-29T23:27:03.919Z,74.22
2018-11-29T23:29:16.093Z,73.37
2018-11-29T23:31:28.312Z,74.09
2018-11-29T23:33:40.509Z,73.62
2018-11-29T23:35:52.685Z,73.50
2018-11-29T23:38:05.052Z,73.32
2018-11-29T23:40:17.538Z,73.51
2018-11-29T23:42:29.706Z,74.42
2018-11-29T23:44:41.855Z,73.68
2018-11-29T23:46:54.039Z,73.65
2018-11-29T23:49:06.357Z,74.38
2018-11-29T23:51:18.571Z,73.98
2018-11-29T23:53:30.823Z,73.55
2018-11-29T23:55:43.031Z,74.27
2018-11-29T23:57:55.281Z,73.76
